sensor_id;sensor_type;location;lat;lon;timestamp;temperature;humidity
45311;SHT31;68264;51.540;5.854;2023-07-08T00:12:58;16.2;80.4
45311;SHT31;68264;51.540;5.854;2023-07-08T00:26:57;16.1;79.9
45311;SHT31;68264;51.540;5.854;2023-07-08T00:40:56;16.0;80.0
45311;SHT31;68264;51.540;5.854;2023-07-08T00:54:55;16.0;80.7
45311;SHT31;68264;51.540;5.854;2023-07-08T01:08:54;16.2;81.0
45311;SHT31;68264;51.540;5.854;2023-07-08T01:22:53;16.4;81.8
45311;SHT31;68264;51.540;5.854;2023-07-08T01:36:52;16.7;81.7
45311;SHT31;68264;51.540;5.854;2023-07-08T01:50:51;16.9;80.1
45311;SHT31;68264;51.540;5.854;2023-07-08T02:04:50;17.1;78.6
45311;SHT31;68264;51.540;5.854;2023-07-08T02:18:49;17.1;77.5
45311;SHT31;68264;51.540;5.854;2023-07-08T02:32:48;17.0;77.0
45311;SHT31;68264;51.540;5.854;2023-07-08T02:46:47;16.8;76.8
45311;SHT31;68264;51.540;5.854;2023-07-08T03:01:47;16.8;76.4
45311;SHT31;68264;51.540;5.854;2023-07-08T03:17:16;16.3;77.7
45311;SHT31;68264;51.540;5.854;2023-07-08T03:32:36;16.2;78.5
45311;SHT31;68264;51.540;5.854;2023-07-08T03:48:05;16.0;78.6
45311;SHT31;68264;51.540;5.854;2023-07-08T04:02:25;15.8;79.0
45311;SHT31;68264;51.540;5.854;2023-07-08T04:16:24;15.8;80.2
45311;SHT31;68264;51.540;5.854;2023-07-08T04:30:23;16.1;80.3
45311;SHT31;68264;51.540;5.854;2023-07-08T04:44:22;16.5;80.6
45311;SHT31;68264;51.540;5.854;2023-07-08T04:58:21;17.2;79.2
45311;SHT31;68264;51.540;5.854;2023-07-08T05:12:20;17.7;78.5
45311;SHT31;68264;51.540;5.854;2023-07-08T05:26:19;18.3;77.3
45311;SHT31;68264;51.540;5.854;2023-07-08T05:40:18;19.3;75.7
45311;SHT31;68264;51.540;5.854;2023-07-08T05:54:17;20.5;70.8
45311;SHT31;68264;51.540;5.854;2023-07-08T06:08:16;21.1;68.0
45311;SHT31;68264;51.540;5.854;2023-07-08T06:22:15;21.3;67.5
45311;SHT31;68264;51.540;5.854;2023-07-08T06:36:14;21.9;67.2
45311;SHT31;68264;51.540;5.854;2023-07-08T06:50:13;22.9;63.6
45311;SHT31;68264;51.540;5.854;2023-07-08T07:04:12;24.6;54.8
45311;SHT31;68264;51.540;5.854;2023-07-08T07:18:11;26.0;54.5
45311;SHT31;68264;51.540;5.854;2023-07-08T07:32:10;26.9;50.7
45311;SHT31;68264;51.540;5.854;2023-07-08T07:46:09;27.2;47.8
45311;SHT31;68264;51.540;5.854;2023-07-08T08:00:08;26.9;49.7
45311;SHT31;68264;51.540;5.854;2023-07-08T08:14:07;27.4;45.5
45311;SHT31;68264;51.540;5.854;2023-07-08T08:28:06;26.8;46.9
45311;SHT31;68264;51.540;5.854;2023-07-08T08:42:05;27.5;47.5
45311;SHT31;68264;51.540;5.854;2023-07-08T08:56:04;29.2;44.1
45311;SHT31;68264;51.540;5.854;2023-07-08T09:10:03;30.6;45.6
45311;SHT31;68264;51.540;5.854;2023-07-08T09:24:02;32.1;40.3
45311;SHT31;68264;51.540;5.854;2023-07-08T09:38:02;33.6;41.6
45311;SHT31;68264;51.540;5.854;2023-07-08T09:52:01;33.9;37.3
45311;SHT31;68264;51.540;5.854;2023-07-08T10:06:00;34.9;35.7
45311;SHT31;68264;51.540;5.854;2023-07-08T10:20:28;35.3;32.9
45311;SHT31;68264;51.540;5.854;2023-07-08T10:34:47;35.4;38.9
45311;SHT31;68264;51.540;5.854;2023-07-08T10:49:47;36.1;37.2
45311;SHT31;68264;51.540;5.854;2023-07-08T11:04:47;35.7;35.5
45311;SHT31;68264;51.540;5.854;2023-07-08T11:18:46;35.5;31.1
45311;SHT31;68264;51.540;5.854;2023-07-08T11:32:45;34.2;36.5
45311;SHT31;68264;51.540;5.854;2023-07-08T11:46:44;35.6;37.2
45311;SHT31;68264;51.540;5.854;2023-07-08T12:00:43;34.5;35.4
45311;SHT31;68264;51.540;5.854;2023-07-08T12:15:11;34.4;31.5
45311;SHT31;68264;51.540;5.854;2023-07-08T12:29:59;35.0;31.0
45311;SHT31;68264;51.540;5.854;2023-07-08T12:45:20;35.3;35.4
45311;SHT31;68264;51.540;5.854;2023-07-08T13:00:49;35.4;31.9
45311;SHT31;68264;51.540;5.854;2023-07-08T13:15:08;34.9;33.3
45311;SHT31;68264;51.540;5.854;2023-07-08T13:29:36;35.2;33.3
45311;SHT31;68264;51.540;5.854;2023-07-08T13:43:55;36.0;33.5
45311;SHT31;68264;51.540;5.854;2023-07-08T13:58:23;35.6;31.7
45311;SHT31;68264;51.540;5.854;2023-07-08T14:13:12;35.6;30.4
45311;SHT31;68264;51.540;5.854;2023-07-08T14:27:31;35.1;36.6
45311;SHT31;68264;51.540;5.854;2023-07-08T14:41:30;34.8;31.5
45311;SHT31;68264;51.540;5.854;2023-07-08T14:55:58;34.8;33.3
45311;SHT31;68264;51.540;5.854;2023-07-08T15:11:18;34.2;32.5
45311;SHT31;68264;51.540;5.854;2023-07-08T15:26:47;33.0;37.9
45311;SHT31;68264;51.540;5.854;2023-07-08T15:41:06;32.4;39.7
45311;SHT31;68264;51.540;5.854;2023-07-08T15:55:06;32.2;39.5
45311;SHT31;68264;51.540;5.854;2023-07-08T16:09:05;32.3;43.3
45311;SHT31;68264;51.540;5.854;2023-07-08T16:23:04;32.4;43.0
45311;SHT31;68264;51.540;5.854;2023-07-08T16:37:32;32.6;44.4
45311;SHT31;68264;51.540;5.854;2023-07-08T16:51:51;33.6;41.9
45311;SHT31;68264;51.540;5.854;2023-07-08T17:06:19;33.6;37.6
45311;SHT31;68264;51.540;5.854;2023-07-08T17:21:08;32.9;40.5
45311;SHT31;68264;51.540;5.854;2023-07-08T17:35:56;32.9;42.4
45311;SHT31;68264;51.540;5.854;2023-07-08T17:50:15;32.1;43.7
45311;SHT31;68264;51.540;5.854;2023-07-08T18:04:14;30.9;49.4
45311;SHT31;68264;51.540;5.854;2023-07-08T18:19:14;30.6;49.0
45311;SHT31;68264;51.540;5.854;2023-07-08T18:34:14;31.0;50.7
45311;SHT31;68264;51.540;5.854;2023-07-08T18:48:42;31.1;52.2
45311;SHT31;68264;51.540;5.854;2023-07-08T19:03:01;30.8;52.1
45311;SHT31;68264;51.540;5.854;2023-07-08T19:17:01;30.7;54.9
45311;SHT31;68264;51.540;5.854;2023-07-08T19:31:00;30.2;55.0
45311;SHT31;68264;51.540;5.854;2023-07-08T19:45:28;28.9;57.4
45311;SHT31;68264;51.540;5.854;2023-07-08T20:00:48;27.5;60.3
45311;SHT31;68264;51.540;5.854;2023-07-08T20:15:48;26.5;64.3
45311;SHT31;68264;51.540;5.854;2023-07-08T20:30:16;25.6;66.8
45311;SHT31;68264;51.540;5.854;2023-07-08T20:44:35;24.7;70.2
45311;SHT31;68264;51.540;5.854;2023-07-08T20:58:34;24.1;73.2
45311;SHT31;68264;51.540;5.854;2023-07-08T21:12:33;23.7;75.3
45311;SHT31;68264;51.540;5.854;2023-07-08T21:26:32;23.4;75.3
45311;SHT31;68264;51.540;5.854;2023-07-08T21:40:31;23.1;76.3
45311;SHT31;68264;51.540;5.854;2023-07-08T21:54:30;22.8;78.4
45311;SHT31;68264;51.540;5.854;2023-07-08T22:08:29;22.5;79.2
45311;SHT31;68264;51.540;5.854;2023-07-08T22:22:28;22.4;79.7
45311;SHT31;68264;51.540;5.854;2023-07-08T22:36:27;22.3;77.6
45311;SHT31;68264;51.540;5.854;2023-07-08T22:50:26;22.3;78.4
45311;SHT31;68264;51.540;5.854;2023-07-08T23:04:54;22.1;81.2
45311;SHT31;68264;51.540;5.854;2023-07-08T23:20:15;22.1;79.9
45311;SHT31;68264;51.540;5.854;2023-07-08T23:35:14;21.8;82.0
45311;SHT31;68264;51.540;5.854;2023-07-08T23:49:13;21.6;82.4
